createdAt,value
2023-02-16T00:00:05.125Z,29.8
2023-02-16T00:05:05.102Z,28
2023-02-16T00:10:05.106Z,27.7
2023-02-16T00:15:05.102Z,28.6
2023-02-16T00:20:05.100Z,25.9
2023-02-16T00:25:05.104Z,27.7
2023-02-16T00:30:05.117Z,27.7
2023-02-16T00:35:05.108Z,30.4
2023-02-16T00:40:05.109Z,28.2
2023-02-16T00:45:05.101Z,27.7
2023-02-16T00:50:05.097Z,28.2
2023-02-16T00:55:05.104Z,31.9
2023-02-16T01:00:05.106Z,31.9
2023-02-16T01:05:05.124Z,26.4
2023-02-16T01:10:05.122Z,28.9
2023-02-16T01:15:05.106Z,30.1
2023-02-16T01:20:05.102Z,32.7
2023-02-16T01:25:05.119Z,29.9
2023-02-16T01:30:05.161Z,29.9
2023-02-16T01:35:05.103Z,26.5
2023-02-16T01:40:05.106Z,29.2
2023-02-16T01:45:05.097Z,28.1
2023-02-16T01:50:05.100Z,35.1
2023-02-16T01:55:05.137Z,31.7
2023-02-16T02:00:05.175Z,31.7
2023-02-16T02:05:05.107Z,30.3
2023-02-16T02:10:05.109Z,29.6
2023-02-16T02:15:05.097Z,26.1
2023-02-16T02:20:05.162Z,27.8
2023-02-16T02:25:05.105Z,27
2023-02-16T02:30:05.136Z,27
2023-02-16T02:35:05.096Z,28.7
2023-02-16T02:40:05.090Z,29.1
2023-02-16T02:45:05.107Z,24.9
2023-02-16T02:50:05.110Z,24.9
2023-02-16T02:55:05.109Z,26.7
2023-02-16T03:00:05.149Z,26.7
2023-02-16T03:05:05.102Z,34
2023-02-16T03:10:05.113Z,27.8
2023-02-16T03:15:05.096Z,25.2
2023-02-16T03:20:05.130Z,25.9
2023-02-16T03:25:05.111Z,27.9
2023-02-16T03:30:05.206Z,27.9
2023-02-16T03:35:05.106Z,24.1
2023-02-16T03:40:05.090Z,27.7
2023-02-16T03:45:05.102Z,28
2023-02-16T03:50:05.198Z,31.6
2023-02-16T03:55:05.120Z,24.6
2023-02-16T04:00:05.118Z,24.6
2023-02-16T04:05:05.149Z,31.3
2023-02-16T04:10:05.100Z,26.3
2023-02-16T04:15:05.093Z,26.9
2023-02-16T04:20:05.122Z,31.2
2023-02-16T04:25:05.119Z,24.3
2023-02-16T04:30:05.150Z,24.3
2023-02-16T04:35:05.107Z,25.2
2023-02-16T04:40:05.099Z,26.6
2023-02-16T04:45:05.095Z,22
2023-02-16T04:50:05.173Z,20.9
2023-02-16T04:55:05.104Z,21.7
2023-02-16T05:00:05.170Z,21.7
2023-02-16T05:05:05.097Z,21.2
2023-02-16T05:10:05.116Z,20.5
2023-02-16T05:15:05.105Z,21.5
2023-02-16T05:20:05.104Z,23.1
2023-02-16T05:25:05.101Z,22.1
2023-02-16T05:30:05.147Z,22.1
2023-02-16T05:35:05.104Z,21.2
2023-02-16T05:40:05.107Z,21.3
2023-02-16T05:45:05.106Z,22.4
2023-02-16T05:50:05.101Z,21.4
2023-02-16T05:55:05.112Z,23.6
2023-02-16T06:00:05.101Z,23.6
2023-02-16T06:05:05.112Z,21.6
2023-02-16T06:10:05.107Z,27.8
2023-02-16T06:15:05.109Z,22.1
2023-02-16T06:20:05.099Z,23.4
2023-02-16T06:25:05.108Z,28
2023-02-16T06:30:05.163Z,28
2023-02-16T06:35:05.106Z,29.1
2023-02-16T06:40:05.095Z,25.3
2023-02-16T06:45:05.109Z,30.3
2023-02-16T06:50:05.121Z,24.9
2023-02-16T06:55:05.115Z,27.6
2023-02-16T07:00:05.121Z,27.6
2023-02-16T07:05:05.103Z,24.1
2023-02-16T07:10:05.102Z,22.6
2023-02-16T07:15:05.106Z,23.5
2023-02-16T07:20:05.109Z,24.5
2023-02-16T07:25:05.140Z,25.7
2023-02-16T07:30:05.141Z,25.7
2023-02-16T07:35:05.108Z,24.6
2023-02-16T07:40:05.111Z,25.8
2023-02-16T07:45:05.128Z,27
2023-02-16T07:50:05.098Z,24
2023-02-16T07:55:05.108Z,24.6
2023-02-16T08:00:05.101Z,24.6
2023-02-16T08:05:05.087Z,23.5
2023-02-16T08:10:05.110Z,27.4
2023-02-16T08:15:05.117Z,25
2023-02-16T08:20:05.126Z,23.3
2023-02-16T08:25:07.145Z,26.8
2023-02-16T08:30:05.234Z,26.8
2023-02-16T08:35:05.134Z,26.5
2023-02-16T08:40:05.142Z,26.7
2023-02-16T08:45:05.114Z,31.8
2023-02-16T08:50:05.117Z,25.1
2023-02-16T08:55:05.115Z,28
2023-02-16T09:00:05.100Z,28
2023-02-16T09:05:05.101Z,25.2
2023-02-16T09:10:05.111Z,29.2
2023-02-16T09:15:05.103Z,32.5
2023-02-16T09:20:05.118Z,29.2
2023-02-16T09:25:05.098Z,29.7
2023-02-16T09:30:05.102Z,29.7
2023-02-16T09:35:05.131Z,30
2023-02-16T09:40:05.116Z,25.6
2023-02-16T09:45:05.097Z,24.8
2023-02-16T09:50:05.120Z,25.7
2023-02-16T09:55:05.153Z,26.9
2023-02-16T10:00:05.096Z,26.9
2023-02-16T10:05:05.108Z,26.4
2023-02-16T10:10:05.110Z,25.4
2023-02-16T10:15:05.103Z,27.3
2023-02-16T10:20:05.105Z,24.4
2023-02-16T10:25:05.098Z,27.2
2023-02-16T10:30:05.127Z,27.2
2023-02-16T10:35:05.113Z,26.7
2023-02-16T10:40:05.111Z,29.6
2023-02-16T10:45:05.111Z,30.2
2023-02-16T10:50:05.095Z,26
2023-02-16T10:55:05.115Z,26.6
2023-02-16T11:00:05.103Z,26.6
2023-02-16T11:05:05.114Z,27.8
2023-02-16T11:10:05.108Z,28.3
2023-02-16T11:15:05.111Z,26.6
2023-02-16T11:20:05.099Z,30.9
2023-02-16T11:25:05.119Z,28.1
2023-02-16T11:30:05.114Z,28.1
2023-02-16T11:35:05.115Z,29.1
2023-02-16T11:40:05.101Z,28.6
2023-02-16T11:45:05.106Z,28
2023-02-16T11:50:05.147Z,27.4
2023-02-16T11:55:05.090Z,30.1
2023-02-16T12:00:05.094Z,30.1
2023-02-16T12:05:05.119Z,29.3
2023-02-16T12:10:05.093Z,28.2
2023-02-16T12:15:05.109Z,31.6
2023-02-16T12:20:05.130Z,30.5
2023-02-16T12:25:05.102Z,30.8
2023-02-16T12:30:05.119Z,30.8
2023-02-16T12:35:05.099Z,33.1
2023-02-16T12:40:05.106Z,30.6
2023-02-16T12:45:05.110Z,30.3
2023-02-16T12:50:05.101Z,31
2023-02-16T12:55:05.102Z,32.1
2023-02-16T13:00:05.093Z,32.1
2023-02-16T13:05:05.100Z,32.4
2023-02-16T13:10:05.098Z,33.8
2023-02-16T13:15:05.105Z,32
2023-02-16T13:20:05.104Z,33.4
2023-02-16T13:25:05.113Z,33.4
2023-02-16T13:30:05.139Z,33.4
2023-02-16T13:35:05.108Z,33
2023-02-16T13:40:05.100Z,32.5
2023-02-16T13:45:05.093Z,33.4
2023-02-16T13:50:05.106Z,33.5
2023-02-16T13:55:05.099Z,34.2
2023-02-16T14:00:05.098Z,34.2
2023-02-16T14:05:05.106Z,33
2023-02-16T14:10:05.105Z,31.5
2023-02-16T14:15:05.120Z,32.3
2023-02-16T14:20:05.099Z,33.8
2023-02-16T14:25:05.099Z,33.4
2023-02-16T14:30:05.162Z,33.4
2023-02-16T14:35:05.104Z,34.7
2023-02-16T14:40:08.022Z,33.7
2023-02-16T14:45:05.104Z,32.8
2023-02-16T14:50:05.102Z,33.2
2023-02-16T14:55:05.107Z,34.5
2023-02-16T15:00:05.088Z,34.5
2023-02-16T15:05:05.100Z,32.9
2023-02-16T15:10:05.100Z,35.7
2023-02-16T15:15:05.109Z,34.3
2023-02-16T15:20:05.092Z,34.5
2023-02-16T15:25:05.114Z,34.1
2023-02-16T15:30:05.143Z,34.1
2023-02-16T15:35:05.108Z,33.8
2023-02-16T15:40:24.808Z,32.4
2023-02-16T15:45:05.105Z,32
2023-02-16T15:50:05.097Z,33.9
2023-02-16T15:55:05.111Z,33.4
2023-02-16T16:00:05.125Z,33.4
2023-02-16T16:05:05.246Z,34.3
2023-02-16T16:10:05.116Z,34.1
2023-02-16T16:15:05.111Z,33.9
2023-02-16T16:20:05.105Z,34.1
2023-02-16T16:25:05.103Z,33.6
2023-02-16T16:30:05.127Z,33.6
2023-02-16T16:35:05.096Z,36.3
2023-02-16T16:40:05.097Z,33.6
2023-02-16T16:45:06.922Z,34.2
2023-02-16T16:50:05.094Z,39.9
2023-02-16T16:55:05.109Z,34.1
2023-02-16T17:00:05.092Z,34.1
2023-02-16T17:05:05.110Z,35.1
2023-02-16T17:10:05.087Z,36.1
2023-02-16T17:15:05.103Z,34.1
2023-02-16T17:20:05.105Z,34.7
2023-02-16T17:25:05.104Z,31.4
2023-02-16T17:30:05.101Z,31.4
2023-02-16T17:35:05.088Z,33.4
2023-02-16T17:40:05.101Z,33.9
2023-02-16T17:45:05.098Z,36.4
2023-02-16T17:50:05.097Z,37.4
2023-02-16T17:55:05.095Z,34.9
2023-02-16T18:00:05.161Z,34.9
2023-02-16T18:05:05.089Z,35
2023-02-16T18:10:05.092Z,34.7
2023-02-16T18:15:05.085Z,35
2023-02-16T18:20:05.090Z,34.2
2023-02-16T18:25:05.098Z,36.8
2023-02-16T18:30:05.145Z,36.8
2023-02-16T18:35:05.103Z,35.2
2023-02-16T18:40:05.097Z,36.8
2023-02-16T18:45:05.103Z,36.2
2023-02-16T18:50:05.094Z,37
2023-02-16T18:55:05.115Z,35.4
2023-02-16T19:00:05.104Z,35.4
2023-02-16T19:05:05.114Z,35.7
2023-02-16T19:10:05.100Z,37.8
2023-02-16T19:15:05.118Z,37.9
2023-02-16T19:20:05.111Z,39.7
2023-02-16T19:25:05.100Z,35.9
2023-02-16T19:30:05.197Z,35.9
2023-02-16T19:35:05.102Z,39.4
2023-02-16T19:40:05.097Z,36.4
2023-02-16T19:45:05.097Z,35
2023-02-16T19:50:05.085Z,36.6
2023-02-16T19:55:05.102Z,34.6
2023-02-16T20:00:05.088Z,34.6
2023-02-16T20:05:05.101Z,36.8
2023-02-16T20:10:05.090Z,36.4
2023-02-16T20:15:05.095Z,33.6
2023-02-16T20:20:05.108Z,35
2023-02-16T20:25:05.101Z,32.1
2023-02-16T20:30:05.134Z,32.1
2023-02-16T20:35:05.113Z,33.1
2023-02-16T20:40:05.095Z,33.2
2023-02-16T20:45:05.111Z,34.8
2023-02-16T20:50:05.100Z,34.1
2023-02-16T20:55:05.092Z,35.8
2023-02-16T21:00:05.097Z,35.8
2023-02-16T21:05:05.112Z,32.3
2023-02-16T21:10:05.092Z,35.7
2023-02-16T21:15:05.090Z,33
2023-02-16T21:20:05.126Z,31.6
2023-02-16T21:25:05.098Z,36.3
2023-02-16T21:30:05.153Z,36.3
2023-02-16T21:35:05.105Z,37.9
2023-02-16T21:40:05.091Z,41
2023-02-16T21:45:05.103Z,39.3
2023-02-16T21:50:05.101Z,39
2023-02-16T21:55:05.102Z,40.3
2023-02-16T22:00:05.096Z,40.3
2023-02-16T22:05:05.097Z,34.3
2023-02-16T22:10:05.102Z,36
2023-02-16T22:15:05.101Z,35.9
2023-02-16T22:20:05.088Z,35.1
2023-02-16T22:25:05.096Z,34.4
2023-02-16T22:30:05.106Z,34.4
2023-02-16T22:35:05.105Z,33.6
2023-02-16T22:40:05.092Z,32.9
2023-02-16T22:45:05.130Z,25.1
2023-02-16T22:50:05.105Z,20.4
2023-02-16T22:55:05.102Z,21.2
2023-02-16T23:00:05.111Z,21.2
2023-02-16T23:05:05.104Z,20.8
2023-02-16T23:10:05.096Z,21.1
2023-02-16T23:15:05.117Z,20.4
2023-02-16T23:20:05.099Z,18.8
2023-02-16T23:25:05.099Z,18.7
2023-02-16T23:30:05.099Z,18.7
2023-02-16T23:35:05.109Z,19.4
2023-02-16T23:40:05.102Z,19.7
2023-02-16T23:45:05.104Z,17.4
2023-02-16T23:50:05.099Z,17.9
2023-02-16T23:55:05.092Z,18.8
